• Join FlightAware (Why Join?)
  • Login
  • US Flag 
03:34AM EST


 

Airport Tracker/Info


-or-


 

Live Flight TrackerFlight Track Log ✈ EGF4193 ✈ 01-May-2012 ✈ KRIC - KORD

Flight Track Log - Related Links

Times and Time Zones

All times are in EDT time to prevent confusion due to time zone crossing. See the EGF4193 flight status page for this flight to view local times or setup timezone preferences in your user account.

Time Position Orientation Groundspeed Altitude Reporting Facility
EDT Latitude Longitude Course Direction KTS MPH feet Rate Location/Type
08:54PM 37.5115 -77.3500 180° South  Level FlightAware Approximate
08:55PM 37.4618 -77.4575 118° Southeast  Level FlightAware Approximate
08:56PM 37.4167 -77.3500 255° West 210 242 4,700  Level Potomac TRACON
08:57PM 37.3978 -77.4400 266° West 242 278 6,700 1,500 Climbing Washington Center
08:58PM 37.3922 -77.5289 266° West 247 284 8,300 1,920 Climbing Washington Center
08:59PM 37.3864 -77.6306 264° West 259 298 10,600 2,220 Climbing Washington Center
09:00PM 37.3783 -77.7244 266° West 269 310 12,800 2,220 Climbing Washington Center
09:01PM 37.3725 -77.8261 266° West 280 322 15,000 2,040 Climbing Washington Center
09:02PM 37.3664 -77.9281 259° West 292 336 16,900 1,440 Climbing Washington Center
09:03PM 37.3497 -78.0319 254° West 300 345 18,000 1,020 Climbing Washington Center
09:04PM 37.3222 -78.1511 255° West 325 374 19,000 960 Climbing Washington Center
09:05PM 37.2967 -78.2706 290° West 351 404 20,000 840 Climbing Washington Center
09:06PM 37.3314 -78.3919 316° Northwest 359 413 20,700 1,200 Climbing Washington Center
09:07PM 37.4064 -78.4833 316° Northwest 347 399 22,500 1,740 Climbing Washington Center
09:08PM 37.4792 -78.5728 310° West 352 405 24,200 1,500 Climbing Washington Center
09:09PM 37.5375 -78.6614 290° West 358 412 25,500 1,200 Climbing Washington Center
09:10PM 37.5719 -78.7806 289° West 358 412 26,700 1,200 Climbing Washington Center
09:11PM 37.6042 -78.9000 288° West 358 412 28,000 1,380 Climbing Washington Center
09:12PM 37.6381 -79.0325 289° West 358 412 29,500 1,380 Climbing Washington Center
09:13PM 37.6719 -79.1547 288° West 358 412 30,800 1,140 Climbing Washington Center
09:14PM 37.7036 -79.2797 291° West 375 432 31,900 600 Climbing Washington Center
09:15PM 37.7375 -79.3942 302° West 375 432 32,000  Climbing Washington Center
09:16PM 37.7983 -79.5156 322° Northwest 388 447 32,000  Level Washington Center
09:17PM 37.8914 -79.6072 321° Northwest 401 461 32,000 300 Level Washington Center
09:18PM 37.9942 -79.7128 320° Northwest 421 484 32,700 780 Climbing Washington Center
09:19PM 38.0806 -79.8047 319° Northwest 421 484 33,600 900 Climbing Washington Center
09:20PM 38.1628 -79.8964 321° Northwest 414 476 34,600 900 Climbing Washington Center
09:21PM 38.2431 -79.9806 320° Northwest 394 453 35,500 660 Climbing Washington Center
09:22PM 38.3133 -80.0561 320° Northwest 380 437 36,000 120 Climbing Washington Center
09:24PM 38.5058 -80.2661 320° Northwest 394 453 36,000  Level Indianapolis Center
09:25PM 38.5875 -80.3528 322° Northwest 394 453 36,000  Level Indianapolis Center
09:26PM 38.6689 -80.4342 321° Northwest 384 442 36,000  Level Indianapolis Center
09:27PM 38.7503 -80.5186 337° Northwest 384 442 36,000  Level Indianapolis Center
09:28PM 38.8497 -80.5731 338° Northwest 384 442 36,000  Level Indianapolis Center
09:30PM 38.9511 -80.6250 338° Northwest 384 442 36,000  Level Indianapolis Center
09:31PM 39.0717 -80.6869 337° Northwest 384 442 36,000  Level Indianapolis Center
09:32PM 39.1731 -80.7419 334° Northwest 384 442 36,000  Level Indianapolis Center
09:33PM 39.2703 -80.8022 326° Northwest 384 442 36,000  Level Indianapolis Center
09:34PM 39.3619 -80.8819 327° Northwest 389 448 36,000  Level Indianapolis Center
09:35PM 39.4533 -80.9594 317° Northwest 389 448 36,000  Level Indianapolis Center
09:36PM 39.5325 -81.0561 315° West 394 453 36,000  Level Indianapolis Center
09:37PM 39.6075 -81.1531 316° Northwest 389 448 36,000  Level Indianapolis Center
09:38PM 39.6844 -81.2503 314° West 384 442 36,000  Level Indianapolis Center
09:39PM 39.7572 -81.3478 294° West 384 442 36,000  Level Indianapolis Center
09:40PM 39.7947 -81.4575 298° West 370 426 36,000 -60 Level Indianapolis Center
09:41PM 39.8447 -81.5803 293° West 370 426 35,900  Descending Indianapolis Center
09:42PM 39.8886 -81.7144 293° West 377 434 36,000  Climbing Indianapolis Center
09:43PM 39.9300 -81.8406 292° West 372 428 36,000  Level Indianapolis Center
09:44PM 39.9694 -81.9669 295° West 372 428 36,000  Level Indianapolis Center
09:45PM 40.0150 -82.0961 292° West 377 434 36,000  Level Indianapolis Center
09:46PM 40.0539 -82.2228 296° West 377 434 36,000  Level Indianapolis Center
09:47PM 40.1011 -82.3519 292° West 384 442 36,000  Level Indianapolis Center
09:48PM 40.1400 -82.4789 294° West 384 442 36,000  Level Indianapolis Center
09:49PM 40.1847 -82.6114 293° West 389 448 36,000  Level Indianapolis Center
09:50PM 40.2253 -82.7386 293° West 389 448 36,000  Level Indianapolis Center
09:51PM 40.2678 -82.8689 292° West 389 448 36,000  Level Indianapolis Center
09:52PM 40.3081 -83.0017 293° West 389 448 36,000  Level Indianapolis Center
09:53PM 40.3503 -83.1294 293° West 389 448 36,000  Level Indianapolis Center
09:54PM 40.3925 -83.2628 293° West 389 448 36,000  Level Indianapolis Center
09:55PM 40.4344 -83.3933 292° West 389 448 36,000 -120 Level Indianapolis Center
09:56PM 40.4700 -83.5106 292° West 389 448 35,800 -660 Descending Indianapolis Center
09:57PM 40.5117 -83.6444 293° West 389 448 34,700 -900 Descending Indianapolis Center
09:58PM 40.5531 -83.7700 290° West 389 448 34,000 -360 Descending Indianapolis Center
09:59PM 40.5903 -83.9014 293° West 389 448 34,000  Level Indianapolis Center
10:00PM 40.6586 -84.1186 292° West 370 426 34,000  Level Chicago Center
10:01PM 40.7000 -84.2522 293° West 389 448 34,000  Level Chicago Center
10:02PM 40.7414 -84.3833 290° West 394 453 34,000  Level Chicago Center
10:03PM 40.7783 -84.5150 291° West 394 453 34,000  Level Chicago Center
10:04PM 40.8150 -84.6442 293° West 382 440 34,000  Level Chicago Center
10:05PM 40.8606 -84.7892 291° West 382 440 34,000  Level Chicago Center
10:06PM 40.8992 -84.9211 290° West 382 440 34,000  Level Chicago Center
10:07PM 40.9356 -85.0533 292° West 388 447 34,000  Level Chicago Center
10:08PM 40.9758 -85.1883 291° West 399 459 34,000 -120 Level Chicago Center
10:09PM 41.0142 -85.3236 290° West 393 452 33,800 -1,620 Descending Chicago Center
10:10PM 41.0522 -85.4617 292° West 393 452 30,800 -3,000 Descending Chicago Center
10:11PM 41.0900 -85.5889 290° West 392 451 27,800 -3,000 Descending Chicago Center
10:12PM 41.1253 -85.7192 291° West 384 442 24,800 -1,920 Descending Chicago Center
10:13PM 41.1631 -85.8525 290° West 374 430 24,000 -900 Descending Chicago Center
10:14PM 41.1981 -85.9831 292° West 379 436 23,100 -900 Descending Chicago Center
10:15PM 41.2328 -86.1000 290° West 379 436 22,200 -1,020 Descending Chicago Center
10:16PM 41.2700 -86.2361 290° West 394 453 21,100 -1,080 Descending Chicago Center
10:17PM 41.3069 -86.3728 290° West 394 453 20,100 -1,020 Descending Chicago Center
10:18PM 41.3436 -86.5067 290° West 394 453 19,100 -1,500 Descending Chicago Center
10:19PM 41.3803 -86.6406 289° West 394 453 17,100 -2,040 Descending Chicago Center
10:20PM 41.4122 -86.7611 290° West 372 428 15,100 -2,040 Descending Chicago Center
10:21PM 41.4419 -86.8708 289° West 344 396 13,100 -1,500 Descending Chicago Center
10:22PM 41.4669 -86.9694 290° West 308 354 12,100 -540 Descending Chicago Center
10:23PM 41.4894 -87.0519 290° West 268 308 12,100 -60 Level Chicago Center
10:24PM 41.5097 -87.1261 278° West 233 268 12,000 -60 Descending Chicago Center
10:25PM 41.5175 -87.2033 165° South 216 249 12,000  Level Chicago Center
10:26PM 41.4544 -87.1806 113° Southeast 272 313 12,000  Level Chicago Center
10:27PM 41.4256 -87.0903 113° Southeast 298 343 12,000  Level Chicago Center
10:28PM 41.3967 -86.9997 60° Northeast 279 321 12,100  Climbing Chicago Center
10:29PM 41.4244 -86.9350 311° West 247 284 12,100  Level Chicago Center
10:30PM 41.4675 -87.0000 291° West 278 320 12,100 -180 Level Chicago Center
10:31PM 41.4922 -87.0878 296° West 257 296 11,800 -600 Descending Chicago Center
10:32PM 41.5253 -87.1781 311° West 268 308 11,000 -420 Descending Chicago Center
10:33PM 41.5747 -87.2542 311° West 273 314 11,000  Level Chicago Center
10:34PM 41.6239 -87.3306 312° West 278 320 11,000  Level Chicago Center
10:35PM 41.6797 -87.4150 309° West 278 320 11,000 -540 Level Chicago Center
10:36PM 41.7247 -87.4886 310° West 273 314 10,000 -1,020 Descending Chicago Center
10:37PM 41.7717 -87.5625 309° West 273 314 9,000 -1,020 Descending Chicago Center
10:38PM 41.8167 -87.6364 318° Northwest 268 308 8,000 -840 Descending Chicago Center
10:40PM 41.8833 -87.7167 315° West 249 287 7,000 -420 Descending Chicago TRACON
10:41PM 41.9333 -87.7833 323° Northwest 249 287 7,000  Level Chicago TRACON
10:42PM 41.9833 -87.8333 346° North 207 238 7,000  Level Chicago TRACON
10:43PM 42.0333 -87.8500 340° North 191 220 7,000  Level Chicago TRACON
10:44PM 42.1000 -87.8833 246° West 189 217 7,000  Level Chicago TRACON
10:45PM 42.0833 -87.9333 251° West 179 206 7,000  Level Chicago TRACON
10:46PM 42.0667 -88.0000 270° West 175 201 7,000 -420 Level Chicago TRACON
10:47PM 42.0667 -88.0667 270° West 176 203 6,200 -900 Descending Chicago TRACON
10:48PM 42.0667 -88.1333 270° West 178 205 5,200 -1,020 Descending Chicago TRACON
10:49PM 42.0667 -88.2000 270° West 191 220 4,200 -600 Descending Chicago TRACON
10:50PM 42.0667 -88.2667 270° West 181 208 4,000 -120 Descending Chicago TRACON
10:51PM 42.0667 -88.3333 206° Southwest 193 222 4,000  Level Chicago TRACON
10:52PM 42.0167 -88.3667 132° Southeast 182 209 4,000  Level Chicago TRACON
10:53PM 41.9833 -88.3167 90° East 181 208 4,000  Level Chicago TRACON
10:54PM 41.9833 -88.2500 90° East 183 211 4,000  Level Chicago TRACON
10:55PM 41.9833 -88.2000 90° East 184 212 4,000  Level Chicago TRACON